sensor_id;sensor_type;location;lat;lon;timestamp;pressure;altitude;pressure_sealevel;temperature;humidity
76044;BME280;64740;34.694;33.088;2023-06-26T00:01:56;1028.4;;;29.6;33.4
76044;BME280;64740;34.694;33.088;2023-06-26T00:07:42;1028.4;;;29.5;33.5
76044;BME280;64740;34.694;33.088;2023-06-26T00:12:18;1028.4;;;29.6;33.5
76044;BME280;64740;34.694;33.088;2023-06-26T00:17:04;1028.4;;;29.6;33.4
76044;BME280;64740;34.694;33.088;2023-06-26T00:22:26;1028.3;;;29.6;33.6
76044;BME280;64740;34.694;33.088;2023-06-26T00:27:42;1028.3;;;29.6;33.5
76044;BME280;64740;34.694;33.088;2023-06-26T00:31:56;1028.3;;;29.5;33.7
76044;BME280;64740;34.694;33.088;2023-06-26T00:36:56;1028.3;;;29.4;33.8
76044;BME280;64740;34.694;33.088;2023-06-26T00:42:26;1028.2;;;29.3;33.8
76044;BME280;64740;34.694;33.088;2023-06-26T00:46:56;1028.2;;;29.3;34.1
76044;BME280;64740;34.694;33.088;2023-06-26T00:51:56;1028.2;;;29.2;33.8
76044;BME280;64740;34.694;33.088;2023-06-26T00:57:10;1028.1;;;29.2;34
76044;BME280;64740;34.694;33.088;2023-06-26T01:02:42;1028.1;;;29.2;34.2
76044;BME280;64740;34.694;33.088;2023-06-26T01:07:18;1028.1;;;29.2;34.4
76044;BME280;64740;34.694;33.088;2023-06-26T01:11:56;1028.1;;;29.2;34.4
76044;BME280;64740;34.694;33.088;2023-06-26T01:17:42;1028;;;29.1;34.4
76044;BME280;64740;34.694;33.088;2023-06-26T01:22:27;1028;;;29.1;34.5
76044;BME280;64740;34.694;33.088;2023-06-26T01:26:56;1028;;;29.1;34.6
76044;BME280;64740;34.694;33.088;2023-06-26T01:32:20;1028;;;29.1;34.5
76044;BME280;64740;34.694;33.088;2023-06-26T01:37:44;1028;;;29.1;34.5
76044;BME280;64740;34.694;33.088;2023-06-26T01:42:20;1028;;;29;34.5
76044;BME280;64740;34.694;33.088;2023-06-26T01:47:36;1028;;;29;34.6
76044;BME280;64740;34.694;33.088;2023-06-26T01:52:33;1028;;;29;34.6
76044;BME280;64740;34.694;33.088;2023-06-26T01:57:28;1027.9;;;29;34.6
76044;BME280;64740;34.694;33.088;2023-06-26T02:01:56;1027.9;;;28.9;34.7
76044;BME280;64740;34.694;33.088;2023-06-26T02:06:56;1027.9;;;28.9;34.6
76044;BME280;64740;34.694;33.088;2023-06-26T02:11:56;1027.9;;;28.9;34.7
76044;BME280;64740;34.694;33.088;2023-06-26T02:17:02;1027.9;;;28.9;34.6
76044;BME280;64740;34.694;33.088;2023-06-26T02:21:56;1027.9;;;28.9;34.6
76044;BME280;64740;34.694;33.088;2023-06-26T02:27:36;1027.9;;;28.9;34.6
76044;BME280;64740;34.694;33.088;2023-06-26T02:31:58;1028;;;28.9;34.7
76044;BME280;64740;34.694;33.088;2023-06-26T02:37:28;1027.9;;;28.8;34.8
76044;BME280;64740;34.694;33.088;2023-06-26T02:41:56;1027.9;;;28.8;34.8
76044;BME280;64740;34.694;33.088;2023-06-26T02:46:56;1027.9;;;28.7;34.8
76044;BME280;64740;34.694;33.088;2023-06-26T02:51:56;1028;;;28.7;35
76044;BME280;64740;34.694;33.088;2023-06-26T02:57:44;1028;;;28.6;34.9
76044;BME280;64740;34.694;33.088;2023-06-26T03:02:12;1028;;;28.6;35
76044;BME280;64740;34.694;33.088;2023-06-26T03:07:28;1028.1;;;28.6;35.1
76044;BME280;64740;34.694;33.088;2023-06-26T03:12:44;1028;;;28.6;35.1
76044;BME280;64740;34.694;33.088;2023-06-26T03:17:36;1028.1;;;28.7;35
76044;BME280;64740;34.694;33.088;2023-06-26T03:22:00;1028.1;;;28.8;34.8
76044;BME280;64740;34.694;33.088;2023-06-26T03:27:36;1028.1;;;28.8;34.8
76044;BME280;64740;34.694;33.088;2023-06-26T03:32:44;1028.2;;;28.9;34.8
76044;BME280;64740;34.694;33.088;2023-06-26T03:37:28;1028.3;;;29;34.4
76044;BME280;64740;34.694;33.088;2023-06-26T03:42:34;1028.3;;;29;34.5
76044;BME280;64740;34.694;33.088;2023-06-26T03:47:44;1028.3;;;29.1;34.5
76044;BME280;64740;34.694;33.088;2023-06-26T03:52:02;1028.3;;;29.1;34.6
76044;BME280;64740;34.694;33.088;2023-06-26T03:56:56;1028.3;;;29.2;34.4
76044;BME280;64740;34.694;33.088;2023-06-26T04:02:20;1028.4;;;29.3;34.5
76044;BME280;64740;34.694;33.088;2023-06-26T04:07:44;1028.4;;;29.3;34.3
76044;BME280;64740;34.694;33.088;2023-06-26T04:12:28;1028.5;;;29.4;34.3
76044;BME280;64740;34.694;33.088;2023-06-26T04:17:36;1028.5;;;29.5;34
76044;BME280;64740;34.694;33.088;2023-06-26T04:22:10;1028.5;;;29.6;33.9
76044;BME280;64740;34.694;33.088;2023-06-26T04:26:56;1028.6;;;29.7;33.9
76044;BME280;64740;34.694;33.088;2023-06-26T04:32:44;1028.7;;;29.7;35.5
76044;BME280;64740;34.694;33.088;2023-06-26T04:37:20;1028.7;;;29.7;36.9
76044;BME280;64740;34.694;33.088;2023-06-26T04:42:06;1028.6;;;29.7;38.5
76044;BME280;64740;34.694;33.088;2023-06-26T04:47:28;1028.6;;;29.6;39.5
76044;BME280;64740;34.694;33.088;2023-06-26T04:52:42;1028.7;;;29.6;39.1
76044;BME280;64740;34.694;33.088;2023-06-26T04:57:06;1028.7;;;29.6;39
76044;BME280;64740;34.694;33.088;2023-06-26T05:02:20;1028.8;;;29.6;38.5
76044;BME280;64740;34.694;33.088;2023-06-26T05:07:22;1028.8;;;29.6;38.2
76044;BME280;64740;34.694;33.088;2023-06-26T05:12:20;1028.8;;;29.7;37.7
76044;BME280;64740;34.694;33.088;2023-06-26T05:17:13;1028.8;;;29.8;37
76044;BME280;64740;34.694;33.088;2023-06-26T05:21:56;1028.8;;;29.9;36.6
76044;BME280;64740;34.694;33.088;2023-06-26T05:27:42;1028.9;;;30;36.9
76044;BME280;64740;34.694;33.088;2023-06-26T05:32:06;1028.9;;;30.1;37.1
76044;BME280;64740;34.694;33.088;2023-06-26T05:36:57;1028.9;;;30.1;36.7
76044;BME280;64740;34.694;33.088;2023-06-26T05:42:42;1028.8;;;30.1;36.5
76044;BME280;64740;34.694;33.088;2023-06-26T05:47:28;1028.9;;;30.1;37.1
76044;BME280;64740;34.694;33.088;2023-06-26T05:52:12;1028.9;;;30.1;39
76044;BME280;64740;34.694;33.088;2023-06-26T05:57:06;1028.9;;;30.2;42
76044;BME280;64740;34.694;33.088;2023-06-26T06:02:26;1028.9;;;30.1;45
76044;BME280;64740;34.694;33.088;2023-06-26T06:07:06;1028.9;;;30.1;46.1
76044;BME280;64740;34.694;33.088;2023-06-26T06:12:20;1028.9;;;30.1;47.5
76044;BME280;64740;34.694;33.088;2023-06-26T06:17:40;1028.9;;;30;48.4
76044;BME280;64740;34.694;33.088;2023-06-26T06:22:26;1028.9;;;29.9;49.4
76044;BME280;64740;34.694;33.088;2023-06-26T06:27:12;1028.9;;;29.8;49.7
76044;BME280;64740;34.694;33.088;2023-06-26T06:32:18;1028.9;;;29.8;50.4
76044;BME280;64740;34.694;33.088;2023-06-26T06:36:56;1028.9;;;29.8;51.1
76044;BME280;64740;34.694;33.088;2023-06-26T06:41:56;1028.9;;;29.9;51.7
76044;BME280;64740;34.694;33.088;2023-06-26T06:47:10;1028.9;;;29.9;52.1
76044;BME280;64740;34.694;33.088;2023-06-26T06:52:42;1028.9;;;29.9;52.1
76044;BME280;64740;34.694;33.088;2023-06-26T06:57:26;1028.9;;;29.9;52.7
76044;BME280;64740;34.694;33.088;2023-06-26T07:02:20;1028.9;;;29.8;53.3
76044;BME280;64740;34.694;33.088;2023-06-26T07:06:56;1028.9;;;29.7;53.6
76044;BME280;64740;34.694;33.088;2023-06-26T07:11:56;1028.9;;;29.7;53.9
76044;BME280;64740;34.694;33.088;2023-06-26T07:17:02;1028.9;;;29.7;54.3
76044;BME280;64740;34.694;33.088;2023-06-26T07:22:43;1028.9;;;29.7;54.4
76044;BME280;64740;34.694;33.088;2023-06-26T07:27:42;1028.9;;;29.8;54.5
76044;BME280;64740;34.694;33.088;2023-06-26T07:32:26;1028.9;;;29.8;54.6
76044;BME280;64740;34.694;33.088;2023-06-26T07:37:42;1028.9;;;29.8;54.6
76044;BME280;64740;34.694;33.088;2023-06-26T07:42:24;1029;;;29.8;54.8
76044;BME280;64740;34.694;33.088;2023-06-26T07:46:56;1029;;;29.9;54.5
76044;BME280;64740;34.694;33.088;2023-06-26T07:52:34;1029.1;;;29.9;54.5
76044;BME280;64740;34.694;33.088;2023-06-26T07:57:42;1029.1;;;29.9;54.5
76044;BME280;64740;34.694;33.088;2023-06-26T08:02:42;1029.1;;;30;54.4
76044;BME280;64740;34.694;33.088;2023-06-26T08:07:42;1029.2;;;30;54.3
76044;BME280;64740;34.694;33.088;2023-06-26T08:12:42;1029.2;;;29.9;54.3
76044;BME280;64740;34.694;33.088;2023-06-26T08:17:06;1029.2;;;29.9;54.4
76044;BME280;64740;34.694;33.088;2023-06-26T08:22:10;1029.2;;;30;54.5
76044;BME280;64740;34.694;33.088;2023-06-26T08:27:32;1029.2;;;30;54.6
76044;BME280;64740;34.694;33.088;2023-06-26T08:32:40;1029.2;;;30.1;54.6
76044;BME280;64740;34.694;33.088;2023-06-26T08:37:26;1029.2;;;30.2;54.5
76044;BME280;64740;34.694;33.088;2023-06-26T08:42:30;1029.2;;;30.1;54.6
76044;BME280;64740;34.694;33.088;2023-06-26T08:47:36;1029.2;;;30.2;54.6
76044;BME280;64740;34.694;33.088;2023-06-26T08:51:57;1029.2;;;30.2;54.6
76044;BME280;64740;34.694;33.088;2023-06-26T08:56:56;1029.2;;;30.3;54.4
76044;BME280;64740;34.694;33.088;2023-06-26T09:01:56;1029.2;;;30.3;54.3
76044;BME280;64740;34.694;33.088;2023-06-26T09:07:40;1029.2;;;30.4;54.1
76044;BME280;64740;34.694;33.088;2023-06-26T09:12:12;1029.2;;;30.4;54.2
76044;BME280;64740;34.694;33.088;2023-06-26T09:17:18;1029.2;;;30.5;54
76044;BME280;64740;34.694;33.088;2023-06-26T09:22:16;1029.2;;;30.4;54.1
76044;BME280;64740;34.694;33.088;2023-06-26T09:26:56;1029.2;;;30.4;53.9
76044;BME280;64740;34.694;33.088;2023-06-26T09:32:38;1029.2;;;30.5;53.7
76044;BME280;64740;34.694;33.088;2023-06-26T09:37:19;1029.1;;;30.6;53.5
76044;BME280;64740;34.694;33.088;2023-06-26T09:42:11;1029.1;;;30.6;53.7
76044;BME280;64740;34.694;33.088;2023-06-26T09:47:29;1029.1;;;30.7;53.8
76044;BME280;64740;34.694;33.088;2023-06-26T09:52:40;1029.1;;;30.8;53.6
76044;BME280;64740;34.694;33.088;2023-06-26T09:57:17;1029.1;;;30.8;53.8
76044;BME280;64740;34.694;33.088;2023-06-26T10:02:04;1029.1;;;30.9;53.9
76044;BME280;64740;34.694;33.088;2023-06-26T10:07:24;1029.1;;;31;53.9
76044;BME280;64740;34.694;33.088;2023-06-26T10:12:17;1029;;;31.2;53.6
76044;BME280;64740;34.694;33.088;2023-06-26T10:17:11;1029;;;31.3;53.5
76044;BME280;64740;34.694;33.088;2023-06-26T10:22:08;1029;;;31.4;53.5
76044;BME280;64740;34.694;33.088;2023-06-26T10:27:33;1028.9;;;31.5;53.2
76044;BME280;64740;34.694;33.088;2023-06-26T10:32:05;1028.9;;;31.7;52.7
76044;BME280;64740;34.694;33.088;2023-06-26T10:37:08;1028.8;;;31.9;52.3
76044;BME280;64740;34.694;33.088;2023-06-26T10:42:40;1028.8;;;32.1;51.9
76044;BME280;64740;34.694;33.088;2023-06-26T10:47:30;1028.7;;;32.2;51.5
76044;BME280;64740;34.694;33.088;2023-06-26T10:52:10;1028.7;;;32.5;51.2
76044;BME280;64740;34.694;33.088;2023-06-26T10:57:33;1028.7;;;32.7;50.6
76044;BME280;64740;34.694;33.088;2023-06-26T11:02:25;1028.7;;;32.8;50.4
76044;BME280;64740;34.694;33.088;2023-06-26T11:07:14;1028.6;;;32.9;50.2
76044;BME280;64740;34.694;33.088;2023-06-26T11:12:33;1028.6;;;33;49.7
76044;BME280;64740;34.694;33.088;2023-06-26T11:17:39;1028.6;;;33.3;49.5
76044;BME280;64740;34.694;33.088;2023-06-26T11:22:24;1028.6;;;33.4;49.1
76044;BME280;64740;34.694;33.088;2023-06-26T11:27:04;1028.6;;;33.5;48.8
76044;BME280;64740;34.694;33.088;2023-06-26T11:32:16;1028.5;;;33.7;48.3
76044;BME280;64740;34.694;33.088;2023-06-26T11:36:57;1028.5;;;33.9;47.8
76044;BME280;64740;34.694;33.088;2023-06-26T11:41:56;1028.5;;;34.1;47.2
76044;BME280;64740;34.694;33.088;2023-06-26T11:47:20;1028.5;;;34.2;46.8
76044;BME280;64740;34.694;33.088;2023-06-26T11:52:13;1028.4;;;34.4;45.9
76044;BME280;64740;34.694;33.088;2023-06-26T11:57:24;1028.4;;;34.5;44.6
76044;BME280;64740;34.694;33.088;2023-06-26T12:02:27;1028.4;;;34.7;43.7
76044;BME280;64740;34.694;33.088;2023-06-26T12:07:35;1028.3;;;35;42.7
76044;BME280;64740;34.694;33.088;2023-06-26T12:11:57;1028.3;;;35;42.5
76044;BME280;64740;34.694;33.088;2023-06-26T12:17:23;1028.3;;;34.9;42.7
76044;BME280;64740;34.694;33.088;2023-06-26T12:22:43;1028.3;;;34.8;42.5
76044;BME280;64740;34.694;33.088;2023-06-26T12:27:44;1028.3;;;34.8;42.4
76044;BME280;64740;34.694;33.088;2023-06-26T12:32:44;1028.3;;;34.7;42.2
76044;BME280;64740;34.694;33.088;2023-06-26T12:37:43;1028.3;;;34.6;42.1
76044;BME280;64740;34.694;33.088;2023-06-26T12:41:57;1028.2;;;34.6;42
76044;BME280;64740;34.694;33.088;2023-06-26T12:46:57;1028.2;;;34.7;42.2
76044;BME280;64740;34.694;33.088;2023-06-26T12:52:37;1028.2;;;34.7;42.5
76044;BME280;64740;34.694;33.088;2023-06-26T12:57:45;1028.1;;;34.7;42.5
76044;BME280;64740;34.694;33.088;2023-06-26T13:02:29;1028.1;;;34.8;42.6
76044;BME280;64740;34.694;33.088;2023-06-26T13:07:37;1028;;;34.9;42.6
76044;BME280;64740;34.694;33.088;2023-06-26T13:12:45;1028;;;35;42.6
76044;BME280;64740;34.694;33.088;2023-06-26T13:16:57;1028;;;35;42.9
76044;BME280;64740;34.694;33.088;2023-06-26T13:22:21;1028;;;34.9;42.9
76044;BME280;64740;34.694;33.088;2023-06-26T13:26:57;1027.9;;;34.9;42.9
76044;BME280;64740;34.694;33.088;2023-06-26T13:32:45;1027.9;;;34.8;42.9
76044;BME280;64740;34.694;33.088;2023-06-26T13:37:29;1027.9;;;34.8;42.7
76044;BME280;64740;34.694;33.088;2023-06-26T13:41:59;1027.9;;;34.9;42.5
76044;BME280;64740;34.694;33.088;2023-06-26T13:47:21;1027.9;;;35.1;42.4
76044;BME280;64740;34.694;33.088;2023-06-26T13:51:57;1027.9;;;35.2;42.4
76044;BME280;64740;34.694;33.088;2023-06-26T13:57:45;1027.8;;;35.1;42.6
76044;BME280;64740;34.694;33.088;2023-06-26T14:02:11;1027.8;;;35;42.9
76044;BME280;64740;34.694;33.088;2023-06-26T14:06:57;1027.8;;;34.9;43.1
76044;BME280;64740;34.694;33.088;2023-06-26T14:12:23;1027.7;;;34.9;43.1
76044;BME280;64740;34.694;33.088;2023-06-26T14:17:45;1027.7;;;34.8;43.2
76044;BME280;64740;34.694;33.088;2023-06-26T14:22:07;1027.6;;;34.8;43.2
76044;BME280;64740;34.694;33.088;2023-06-26T14:26:57;1027.6;;;34.8;42.9
76044;BME280;64740;34.694;33.088;2023-06-26T14:32:15;1027.6;;;34.9;42.8
76044;BME280;64740;34.694;33.088;2023-06-26T14:37:37;1027.6;;;34.9;42.9
76044;BME280;64740;34.694;33.088;2023-06-26T14:42:07;1027.5;;;35;42.7
76044;BME280;64740;34.694;33.088;2023-06-26T14:47:21;1027.5;;;35.5;41.1
76044;BME280;64740;34.694;33.088;2023-06-26T14:52:45;1027.5;;;36.3;39.7
76044;BME280;64740;34.694;33.088;2023-06-26T14:57:21;1027.4;;;37;38.7
76044;BME280;64740;34.694;33.088;2023-06-26T15:02:05;1027.4;;;37.6;38
76044;BME280;64740;34.694;33.088;2023-06-26T15:07:31;1027.4;;;37.9;37.7
76044;BME280;64740;34.694;33.088;2023-06-26T15:12:29;1027.4;;;37.5;38.2
76044;BME280;64740;34.694;33.088;2023-06-26T15:17:07;1027.4;;;37.2;38.6
76044;BME280;64740;34.694;33.088;2023-06-26T15:22:35;1027.4;;;37.1;38.9
76044;BME280;64740;34.694;33.088;2023-06-26T15:27:29;1027.4;;;37.1;38.9
76044;BME280;64740;34.694;33.088;2023-06-26T15:32:07;1027.3;;;36.9;38.8
76044;BME280;64740;34.694;33.088;2023-06-26T15:37:21;1027.3;;;36.8;38.4
76044;BME280;64740;34.694;33.088;2023-06-26T15:42:45;1027.3;;;36.7;38.1
76044;BME280;64740;34.694;33.088;2023-06-26T15:47:29;1027.3;;;36.6;37.6
76044;BME280;64740;34.694;33.088;2023-06-26T15:52:13;1027.3;;;36.6;37.5
76044;BME280;64740;34.694;33.088;2023-06-26T15:57:21;1027.3;;;36.5;36.9
76044;BME280;64740;34.694;33.088;2023-06-26T16:02:07;1027.4;;;36.4;36.5
76044;BME280;64740;34.694;33.088;2023-06-26T16:07:29;1027.4;;;36.3;36.3
76044;BME280;64740;34.694;33.088;2023-06-26T16:12:45;1027.4;;;36.4;35.8
76044;BME280;64740;34.694;33.088;2023-06-26T16:16:57;1027.4;;;36.5;35.5
76044;BME280;64740;34.694;33.088;2023-06-26T16:22:29;1027.4;;;36.7;35
76044;BME280;64740;34.694;33.088;2023-06-26T16:27:43;1027.4;;;36.7;35.1
76044;BME280;64740;34.694;33.088;2023-06-26T16:32:37;1027.4;;;36.5;35.3
76044;BME280;64740;34.694;33.088;2023-06-26T16:37:07;1027.4;;;36.4;35.4
76044;BME280;64740;34.694;33.088;2023-06-26T16:42:37;1027.5;;;36;35.6
76044;BME280;64740;34.694;33.088;2023-06-26T16:47:45;1027.5;;;35.5;36
76044;BME280;64740;34.694;33.088;2023-06-26T16:52:45;1027.5;;;35.1;36.5
76044;BME280;64740;34.694;33.088;2023-06-26T16:57:29;1027.5;;;34.9;37.1
76044;BME280;64740;34.694;33.088;2023-06-26T17:02:45;1027.5;;;34.7;37.8
76044;BME280;64740;34.694;33.088;2023-06-26T17:06:57;1027.5;;;34.6;38.3
76044;BME280;64740;34.694;33.088;2023-06-26T17:12:07;1027.5;;;34.4;39.1
76044;BME280;64740;34.694;33.088;2023-06-26T17:17:21;1027.5;;;34.2;40.1
76044;BME280;64740;34.694;33.088;2023-06-26T17:22:43;1027.6;;;33.9;40.6
76044;BME280;64740;34.694;33.088;2023-06-26T17:27:29;1027.7;;;33.3;41.8
76044;BME280;64740;34.694;33.088;2023-06-26T17:32:37;1027.7;;;32.8;42.8
76044;BME280;64740;34.694;33.088;2023-06-26T17:37:47;1027.7;;;32.4;43.6
76044;BME280;64740;34.694;33.088;2023-06-26T17:42:13;1027.7;;;32.2;44.3
76044;BME280;64740;34.694;33.088;2023-06-26T17:46:57;1027.7;;;32;44.8
76044;BME280;64740;34.694;33.088;2023-06-26T17:52:21;1027.8;;;32.3;45
76044;BME280;64740;34.694;33.088;2023-06-26T17:57:47;1027.8;;;32.6;44.3
76044;BME280;64740;34.694;33.088;2023-06-26T18:02:29;1027.9;;;32.9;43.9
76044;BME280;64740;34.694;33.088;2023-06-26T18:07:21;1027.9;;;33;43.6
76044;BME280;64740;34.694;33.088;2023-06-26T18:12:21;1027.9;;;33.1;43.4
76044;BME280;64740;34.694;33.088;2023-06-26T18:16:57;1027.9;;;33.2;43.3
76044;BME280;64740;34.694;33.088;2023-06-26T18:22:47;1027.9;;;33.2;43.1
76044;BME280;64740;34.694;33.088;2023-06-26T18:26:57;1027.9;;;33.2;43.1
76044;BME280;64740;34.694;33.088;2023-06-26T18:31:57;1028;;;33.1;43.2
76044;BME280;64740;34.694;33.088;2023-06-26T18:37:31;1028.1;;;33.1;43.3
76044;BME280;64740;34.694;33.088;2023-06-26T18:42:47;1028.1;;;33.1;43.4
76044;BME280;64740;34.694;33.088;2023-06-26T19:07:13;1028.2;;;33;43.9
76044;BME280;64740;34.694;33.088;2023-06-26T19:12:11;1028.2;;;32.8;44.9
76044;BME280;64740;34.694;33.088;2023-06-26T19:17:47;1028.2;;;32.7;45.3
76044;BME280;64740;34.694;33.088;2023-06-26T19:21:57;1028.3;;;32.6;45.8
76044;BME280;64740;34.694;33.088;2023-06-26T19:27:09;1028.3;;;32.5;45.7
76044;BME280;64740;34.694;33.088;2023-06-26T19:32:47;1028.3;;;32.5;45.4
76044;BME280;64740;34.694;33.088;2023-06-26T19:36:59;1028.3;;;32.5;45.6
76044;BME280;64740;34.694;33.088;2023-06-26T19:42:13;1028.3;;;32.4;46
76044;BME280;64740;34.694;33.088;2023-06-26T19:47:11;1028.3;;;32.3;46.5
76044;BME280;64740;34.694;33.088;2023-06-26T19:52:31;1028.3;;;32.2;46.7
76044;BME280;64740;34.694;33.088;2023-06-26T19:57:37;1028.3;;;32.2;46.5
76044;BME280;64740;34.694;33.088;2023-06-26T20:02:07;1028.3;;;32.1;46.4
76044;BME280;64740;34.694;33.088;2023-06-26T20:07:47;1028.3;;;32.1;46.5
76044;BME280;64740;34.694;33.088;2023-06-26T20:12:31;1028.3;;;32;46.9
76044;BME280;64740;34.694;33.088;2023-06-26T20:17:31;1028.3;;;31.9;47.2
76044;BME280;64740;34.694;33.088;2023-06-26T20:22:19;1028.3;;;31.9;47.5
76044;BME280;64740;34.694;33.088;2023-06-26T20:26:57;1028.3;;;31.8;47.5
76044;BME280;64740;34.694;33.088;2023-06-26T20:31:57;1028.3;;;31.9;47.2
76044;BME280;64740;34.694;33.088;2023-06-26T20:37:45;1028.4;;;31.8;47.1
76044;BME280;64740;34.694;33.088;2023-06-26T20:42:13;1028.3;;;31.7;47.3
76044;BME280;64740;34.694;33.088;2023-06-26T20:47:31;1028.3;;;31.7;46.9
76044;BME280;64740;34.694;33.088;2023-06-26T20:52:31;1028.3;;;31.7;46.4
76044;BME280;64740;34.694;33.088;2023-06-26T20:57:31;1028.3;;;31.7;45.6
76044;BME280;64740;34.694;33.088;2023-06-26T21:02:29;1028.3;;;31.7;44.7
76044;BME280;64740;34.694;33.088;2023-06-26T21:07:35;1028.3;;;31.6;44.2
76044;BME280;64740;34.694;33.088;2023-06-26T21:12:45;1028.3;;;31.3;44.3
76044;BME280;64740;34.694;33.088;2023-06-26T21:17:45;1028.3;;;31.1;44.1
76044;BME280;64740;34.694;33.088;2023-06-26T21:22:43;1028.3;;;30.9;44.4
76044;BME280;64740;34.694;33.088;2023-06-26T21:27:45;1028.3;;;30.8;45.6
76044;BME280;64740;34.694;33.088;2023-06-26T21:31:57;1028.3;;;30.6;48.3
76044;BME280;64740;34.694;33.088;2023-06-26T21:37:09;1028.2;;;30.5;49.4
76044;BME280;64740;34.694;33.088;2023-06-26T21:42:36;1028.2;;;30.3;49.4
76044;BME280;64740;34.694;33.088;2023-06-26T21:47:45;1028.3;;;30.2;49.6
76044;BME280;64740;34.694;33.088;2023-06-26T21:52:15;1028.2;;;30.1;49.9
76044;BME280;64740;34.694;33.088;2023-06-26T21:57:37;1028.1;;;30;50.3
76044;BME280;64740;34.694;33.088;2023-06-26T22:02:47;1028.2;;;29.9;50.2
76044;BME280;64740;34.694;33.088;2023-06-26T22:06:57;1028.2;;;29.9;50.1
76044;BME280;64740;34.694;33.088;2023-06-26T22:12:19;1028.1;;;29.9;50.2
76044;BME280;64740;34.694;33.088;2023-06-26T22:16:57;1028.1;;;29.9;50.2
76044;BME280;64740;34.694;33.088;2023-06-26T22:22:45;1028.1;;;29.9;49.9
76044;BME280;64740;34.694;33.088;2023-06-26T22:27:17;1028.1;;;29.9;50
76044;BME280;64740;34.694;33.088;2023-06-26T22:32:23;1028.1;;;29.9;50.1
76044;BME280;64740;34.694;33.088;2023-06-26T22:37:11;1028.1;;;29.9;50.5
76044;BME280;64740;34.694;33.088;2023-06-26T22:42:15;1028.1;;;29.9;51.1
76044;BME280;64740;34.694;33.088;2023-06-26T22:47:33;1028.1;;;29.8;51.5
76044;BME280;64740;34.694;33.088;2023-06-26T22:52:21;1028.2;;;29.8;52
76044;BME280;64740;34.694;33.088;2023-06-26T22:57:15;1028.2;;;29.7;52.7
76044;BME280;64740;34.694;33.088;2023-06-26T23:02:09;1028.2;;;29.6;53
76044;BME280;64740;34.694;33.088;2023-06-26T23:07:45;1028.2;;;29.6;53.5
76044;BME280;64740;34.694;33.088;2023-06-26T23:11:57;1028.3;;;29.5;54
76044;BME280;64740;34.694;33.088;2023-06-26T23:17:21;1028.3;;;29.4;54.1
76044;BME280;64740;34.694;33.088;2023-06-26T23:22:31;1028.3;;;29.4;54.3
76044;BME280;64740;34.694;33.088;2023-06-26T23:27:07;1028.3;;;29.3;54.8
76044;BME280;64740;34.694;33.088;2023-06-26T23:32:29;1028.3;;;29.3;54.9
76044;BME280;64740;34.694;33.088;2023-06-26T23:37:11;1028.2;;;29.2;55
76044;BME280;64740;34.694;33.088;2023-06-26T23:42:47;1028.2;;;29.2;54.7
76044;BME280;64740;34.694;33.088;2023-06-26T23:47:07;1028.2;;;29.2;54.7
76044;BME280;64740;34.694;33.088;2023-06-26T23:51:57;1028.1;;;29.1;54.6
76044;BME280;64740;34.694;33.088;2023-06-26T23:57:45;1028.1;;;29.1;54.2
